createdAt,value
2023-01-07T00:04:48.854Z,29.10
2023-01-07T00:09:51.941Z,34.20
2023-01-07T00:14:55.144Z,35.70
2023-01-07T00:19:58.261Z,29.50
2023-01-07T00:25:01.330Z,29.40
2023-01-07T00:30:04.913Z,33.70
2023-01-07T00:35:21.990Z,37.90
2023-01-07T00:40:25.655Z,43.70
2023-01-07T00:45:31.679Z,49.90
2023-01-07T00:50:38.336Z,54.10
2023-01-07T00:55:42.087Z,54.80
2023-01-07T01:00:45.787Z,60.40
2023-01-07T01:05:49.431Z,56.90
2023-01-07T01:10:52.636Z,57.70
2023-01-07T01:15:56.389Z,66.70
2023-01-07T01:21:07.194Z,69.90
2023-01-07T01:26:13.842Z,65.90
2023-01-07T01:31:17.209Z,70.40
2023-01-07T01:36:25.945Z,67.40
2023-01-07T01:41:31.788Z,76.20
2023-01-07T01:46:42.237Z,67.60
2023-01-07T01:51:50.463Z,58.40
2023-01-07T01:56:58.610Z,58.10
2023-01-07T02:02:03.119Z,56.30
2023-01-07T02:07:12.075Z,56.90
2023-01-07T02:12:36.645Z,56.90
2023-01-07T02:18:01.992Z,59.30
2023-01-07T02:23:26.368Z,55.30
2023-01-07T02:29:09.102Z,57.10
2023-01-07T02:34:47.692Z,60.30
2023-01-07T02:40:14.133Z,60.50
2023-01-07T02:45:29.415Z,63.70
2023-01-07T02:50:33.660Z,52.30
2023-01-07T02:56:09.126Z,55.60
2023-01-07T03:01:37.982Z,58.00
2023-01-07T03:07:05.934Z,52.40
2023-01-07T03:12:40.107Z,61.80
2023-01-07T03:17:53.834Z,63.40
2023-01-07T03:22:58.723Z,61.40
2023-01-07T03:28:03.076Z,59.30
2023-01-07T03:33:36.273Z,65.60
2023-01-07T03:38:43.498Z,69.30
2023-01-07T03:43:48.190Z,59.00
2023-01-07T03:48:52.417Z,56.20
2023-01-07T03:53:55.739Z,49.40
2023-01-07T03:58:59.985Z,52.40
2023-01-07T04:04:03.692Z,54.20
2023-01-07T04:09:07.374Z,49.00
2023-01-07T04:14:10.816Z,51.60
2023-01-07T04:19:14.008Z,46.20
2023-01-07T04:24:17.315Z,46.40
2023-01-07T04:29:21.070Z,49.10
2023-01-07T04:34:25.339Z,40.70
2023-01-07T04:39:29.164Z,43.10
2023-01-07T04:44:33.203Z,41.70
2023-01-07T04:49:36.649Z,39.50
2023-01-07T04:54:40.505Z,40.20
2023-01-07T04:59:43.960Z,37.00
2023-01-07T05:04:47.374Z,38.90
2023-01-07T05:09:51.786Z,34.70
2023-01-07T05:14:55.608Z,34.30
2023-01-07T05:19:58.899Z,36.50
2023-01-07T05:25:02.368Z,33.90
2023-01-07T05:30:06.378Z,34.80
2023-01-07T05:35:10.296Z,32.30
2023-01-07T05:40:14.319Z,35.00
2023-01-07T05:45:18.725Z,29.20
2023-01-07T05:50:21.872Z,31.60
2023-01-07T05:55:26.012Z,29.00
2023-01-07T06:00:29.157Z,30.40
2023-01-07T06:05:32.684Z,31.20
2023-01-07T06:10:36.045Z,29.10
2023-01-07T06:15:39.395Z,30.50
2023-01-07T06:20:42.643Z,28.60
2023-01-07T06:25:45.736Z,27.30
2023-01-07T06:30:49.283Z,27.80
2023-01-07T06:35:52.716Z,25.20
2023-01-07T06:40:56.003Z,24.60
2023-01-07T06:45:59.219Z,25.70
2023-01-07T06:51:02.426Z,28.70
2023-01-07T06:56:05.907Z,31.00
2023-01-07T07:01:09.737Z,28.80
2023-01-07T07:06:13.055Z,25.80
2023-01-07T07:11:16.205Z,27.40
2023-01-07T07:16:22.664Z,27.80
2023-01-07T07:21:26.083Z,24.30
2023-01-07T07:26:29.597Z,25.20
2023-01-07T07:31:32.825Z,22.20
2023-01-07T07:36:36.274Z,22.00
2023-01-07T07:41:39.393Z,26.90
2023-01-07T07:46:44.862Z,24.30
2023-01-07T07:51:48.138Z,42.50
2023-01-07T07:56:51.228Z,37.10
2023-01-07T08:01:54.503Z,57.00
2023-01-07T08:06:57.707Z,29.40
2023-01-07T08:12:00.837Z,23.50
2023-01-07T08:17:06.102Z,26.10
2023-01-07T08:22:09.452Z,27.00
2023-01-07T08:27:12.592Z,27.10
2023-01-07T08:32:15.952Z,27.90
2023-01-07T08:37:19.084Z,28.00
2023-01-07T08:42:22.203Z,27.30
2023-01-07T08:47:28.009Z,25.40
2023-01-07T08:52:31.120Z,25.10
2023-01-07T08:57:34.269Z,28.20
2023-01-07T09:02:37.484Z,31.10
2023-01-07T09:07:40.899Z,32.50
2023-01-07T09:12:44.129Z,31.40
2023-01-07T09:17:47.374Z,30.50
2023-01-07T09:22:50.601Z,27.50
2023-01-07T09:27:53.817Z,31.90
2023-01-07T09:32:56.978Z,32.10
2023-01-07T09:38:00.180Z,30.30
2023-01-07T09:43:58.639Z,30.20
2023-01-07T09:49:05.206Z,32.90
2023-01-07T09:54:28.770Z,31.10
2023-01-07T09:59:33.061Z,35.70
2023-01-07T10:05:05.075Z,36.20
2023-01-07T10:10:12.683Z,36.80
2023-01-07T10:15:22.915Z,25.80
2023-01-07T10:20:32.169Z,29.20
2023-01-07T10:25:43.115Z,37.60
2023-01-07T10:30:52.083Z,37.40
2023-01-07T10:36:22.981Z,38.30
2023-01-07T10:41:41.096Z,38.60
2023-01-07T10:46:50.264Z,32.90
2023-01-07T10:52:27.043Z,34.00
2023-01-07T10:57:31.959Z,34.50
2023-01-07T11:02:35.199Z,35.10
2023-01-07T11:07:43.728Z,29.40
2023-01-07T11:12:49.637Z,30.20
2023-01-07T11:18:21.565Z,25.20
2023-01-07T11:23:27.871Z,28.30
2023-01-07T11:28:32.929Z,27.50
2023-01-07T11:34:03.142Z,33.80
2023-01-07T11:39:32.340Z,50.00
2023-01-07T11:44:35.492Z,127.00
2023-01-07T11:49:44.540Z,33.20
2023-01-07T11:54:53.826Z,32.50
2023-01-07T12:00:16.515Z,32.50
2023-01-07T12:05:24.374Z,28.30
2023-01-07T12:10:38.997Z,23.60
2023-01-07T12:16:01.926Z,25.90
2023-01-07T12:26:22.895Z,27.90
2023-01-07T12:31:41.985Z,26.50
2023-01-07T12:37:27.492Z,24.90
2023-01-07T12:42:35.242Z,32.10
2023-01-07T12:47:46.634Z,30.20
2023-01-07T12:53:12.251Z,28.90
2023-01-07T12:58:45.079Z,25.10
2023-01-07T13:04:13.347Z,26.80
2023-01-07T13:09:59.180Z,28.20
2023-01-07T13:15:10.497Z,30.60
2023-01-07T13:20:16.748Z,34.30
2023-01-07T13:25:33.198Z,35.60
2023-01-07T13:31:10.259Z,33.20
2023-01-07T13:36:25.567Z,27.40
2023-01-07T13:41:48.546Z,28.40
2023-01-07T13:46:52.557Z,31.80
2023-01-07T13:52:12.551Z,32.00
2023-01-07T13:57:40.261Z,34.70
2023-01-07T14:03:28.279Z,31.00
2023-01-07T14:08:31.766Z,29.10
2023-01-07T14:14:22.218Z,32.90
2023-01-07T14:19:25.273Z,30.30
2023-01-07T14:24:46.372Z,27.00
2023-01-07T14:29:54.319Z,32.10
2023-01-07T14:35:08.268Z,31.20
2023-01-07T14:40:34.889Z,29.30
2023-01-07T14:45:40.932Z,30.90
2023-01-07T14:51:22.403Z,31.80
2023-01-07T14:56:42.054Z,30.60
2023-01-07T15:02:11.632Z,31.70
2023-01-07T15:07:20.872Z,34.90
2023-01-07T15:12:48.160Z,31.20
2023-01-07T15:17:51.319Z,30.30
2023-01-07T15:23:09.508Z,69.50
2023-01-07T15:28:37.310Z,40.70
2023-01-07T15:34:02.027Z,56.30
2023-01-07T15:39:05.365Z,66.20
2023-01-07T15:44:22.639Z,60.30
2023-01-07T15:49:28.139Z,45.80
2023-01-07T15:54:31.320Z,48.40
2023-01-07T15:59:39.080Z,35.70
2023-01-07T16:04:44.448Z,33.80
2023-01-07T16:09:47.992Z,33.70
2023-01-07T16:14:51.169Z,36.60
2023-01-07T16:20:21.955Z,34.90
2023-01-07T16:25:33.256Z,38.60
2023-01-07T16:30:41.193Z,43.30
2023-01-07T16:35:47.018Z,51.50
2023-01-07T16:40:50.999Z,57.20
2023-01-07T16:46:23.986Z,65.30
2023-01-07T16:51:46.629Z,64.30
2023-01-07T16:56:55.485Z,51.90
2023-01-07T17:02:03.143Z,43.80
2023-01-07T17:07:16.663Z,48.30
2023-01-07T17:12:35.947Z,50.30
2023-01-07T17:17:39.146Z,51.50
2023-01-07T17:22:42.793Z,48.60
2023-01-07T17:27:54.482Z,53.80
2023-01-07T17:32:57.796Z,51.10
2023-01-07T17:38:00.946Z,51.30
2023-01-07T17:43:23.825Z,51.80
2023-01-07T17:48:28.063Z,53.80
2023-01-07T17:53:48.241Z,53.60
2023-01-07T17:58:53.975Z,59.20
2023-01-07T18:03:58.914Z,51.70
2023-01-07T18:09:04.999Z,49.70
2023-01-07T18:14:10.009Z,48.60
2023-01-07T18:19:15.113Z,46.20
2023-01-07T18:24:20.886Z,45.70
2023-01-07T18:29:24.099Z,42.20
2023-01-07T18:34:27.312Z,42.30
2023-01-07T18:39:30.511Z,44.90
2023-01-07T18:44:33.709Z,31.80
2023-01-07T18:49:36.912Z,43.50
2023-01-07T18:54:41.436Z,51.50
2023-01-07T18:59:44.653Z,60.40
2023-01-07T19:04:48.781Z,60.90
2023-01-07T19:09:52.000Z,62.70
2023-01-07T19:14:55.369Z,62.40
2023-01-07T19:19:58.471Z,65.80
2023-01-07T19:25:01.751Z,65.20
2023-01-07T19:30:05.967Z,66.90
2023-01-07T19:35:10.094Z,69.90
2023-01-07T19:40:13.564Z,66.00
2023-01-07T19:45:16.736Z,61.90
2023-01-07T19:50:19.883Z,65.30
2023-01-07T19:55:24.517Z,68.00
2023-01-07T20:00:27.704Z,68.40
2023-01-07T20:05:30.822Z,63.00
2023-01-07T20:10:34.681Z,68.60
2023-01-07T20:15:37.893Z,64.40
2023-01-07T20:20:41.099Z,64.70
2023-01-07T20:25:44.228Z,66.70
2023-01-07T20:30:48.336Z,63.70
2023-01-07T20:36:02.009Z,58.60
2023-01-07T20:41:07.674Z,62.90
2023-01-07T20:46:11.383Z,59.80
2023-01-07T20:51:15.518Z,70.20
2023-01-07T20:56:21.898Z,63.80
2023-01-07T21:01:25.356Z,58.50
2023-01-07T21:06:28.945Z,62.10
2023-01-07T21:11:32.266Z,55.00
2023-01-07T21:16:36.684Z,57.00
2023-01-07T21:21:39.816Z,64.50
2023-01-07T21:26:43.377Z,61.70
2023-01-07T21:31:47.087Z,57.00
2023-01-07T21:36:50.274Z,56.70
2023-01-07T21:41:53.533Z,56.60
2023-01-07T21:46:56.662Z,60.00
2023-01-07T21:51:59.837Z,62.90
2023-01-07T21:57:03.108Z,57.60
2023-01-07T22:02:06.483Z,57.60
2023-01-07T22:07:15.064Z,59.20
2023-01-07T22:12:18.207Z,61.50
2023-01-07T22:17:21.299Z,57.90
2023-01-07T22:22:24.428Z,59.40
2023-01-07T22:27:27.564Z,57.70
2023-01-07T22:32:30.696Z,58.50
2023-01-07T22:37:35.148Z,63.90
2023-01-07T22:42:46.995Z,60.10
2023-01-07T22:47:51.122Z,61.20
2023-01-07T22:52:54.625Z,60.90
2023-01-07T22:57:59.656Z,56.90
2023-01-07T23:03:02.883Z,63.60
2023-01-07T23:08:06.927Z,62.70
2023-01-07T23:13:10.743Z,69.60
2023-01-07T23:18:13.969Z,63.40
2023-01-07T23:23:17.340Z,67.50
2023-01-07T23:28:20.564Z,64.10
2023-01-07T23:33:23.624Z,64.80
2023-01-07T23:38:26.789Z,68.60
2023-01-07T23:43:30.316Z,64.80
2023-01-07T23:48:34.825Z,63.90
2023-01-07T23:53:38.551Z,63.10
2023-01-07T23:58:41.641Z,63.50
